Pagrindinis puslapis
METAR-TAF:

METAR-TAF

Oro uostai :

Niamėjus, Nigeris

platuma: 13-29N, ilguma: 002-10E, Aukštis: 223 m

Dabartinis oras

Ataskaita buvo paskelbta 56 minutes, ne 10:00 UTC
Vėjas 18 kt iš Pietvakarių
Temperatūra 33°C
Drėgmė 44%
Slėgis 1013 hPa
Matomumas: 6000 m

METAR: DRRN 311000Z 23018KT 6000 NSC 33/19 Q1013

Laikas: 11:56 (10:56 UTC)

Prognozė

Ataskaita buvo paskelbta 5 valandos ir 56 minutes, ne 05:00 UTC
Prognozė galioja nuo 31 metu 06 UTC su 01 metu 12 UTC
Vėjas 10 kt iš Pietų/Pietvakarių
Matomumas 10 km arba daugiau
nėra debesų žemiau 1500 m ir nėra kamuolinių lietaus debesų
Laikinai
nuo 31 metu 06 UTC su 31 metu 09 UTC
Vėjas 25 kt iš Pietų
Matomumas: 2500 m
Dulkes pustymas
Tikimybė 30% :
Laikinai
nuo 31 metu 14 UTC su 31 metu 20 UTC
Išsisklaidę debesys ne aukštis 3300 ft
Mažai debesys ne aukštis 4000 ft, Liūtiniai kamuoliniai debesys.
perkūnija

TAF: DRRN 310500Z 3106/0112 20010KT CAVOK TEMPO 3106/3109 18025KT 2500 BLDU PROB30 TEMPO 3114/3120 TS SCT033 FEW040CB

Orai ataskaitas ir orų prognozės (METAR, TAF).

turimą stotys yra geltonos ir raudonos taškus žemėlapyje.

Perkelti pele per norėdami pamatyti stoties vardą.

Tada spustelėkite, norėdami matyti oro stebėjimo ir prognozės.

Norėdami pakeisti žemėlapį: spustelėkite ant žalios mygtukų su juodo kryžiaus žemyn,; žalią mygtuką su brūkšneliu, jei norite nutolinti; arba žalių rodyklių gretimoms žemėlapius.


METAR-TAF: